sensor_id;sensor_type;location;lat;lon;timestamp;P1;durP1;ratioP1;P2;durP2;ratioP2
35891;SDS011;21993;42.672;23.296;2023-02-15T00:00:54;40.60;;;23.20;;
35891;SDS011;21993;42.672;23.296;2023-02-15T00:03:30;41.23;;;24.83;;
35891;SDS011;21993;42.672;23.296;2023-02-15T00:05:56;44.40;;;24.20;;
35891;SDS011;21993;42.672;23.296;2023-02-15T00:08:22;41.30;;;24.50;;
35891;SDS011;21993;42.672;23.296;2023-02-15T00:10:48;38.77;;;23.50;;
35891;SDS011;21993;42.672;23.296;2023-02-15T00:13:13;44.17;;;26.00;;
35891;SDS011;21993;42.672;23.296;2023-02-15T00:15:38;41.70;;;25.83;;
35891;SDS011;21993;42.672;23.296;2023-02-15T00:18:04;41.20;;;24.10;;
35891;SDS011;21993;42.672;23.296;2023-02-15T00:20:29;41.53;;;25.37;;
35891;SDS011;21993;42.672;23.296;2023-02-15T00:22:54;42.60;;;24.63;;
35891;SDS011;21993;42.672;23.296;2023-02-15T00:25:20;44.60;;;25.10;;
35891;SDS011;21993;42.672;23.296;2023-02-15T00:27:45;44.13;;;24.97;;
35891;SDS011;21993;42.672;23.296;2023-02-15T00:30:11;39.97;;;23.57;;
35891;SDS011;21993;42.672;23.296;2023-02-15T00:32:36;34.67;;;21.80;;
35891;SDS011;21993;42.672;23.296;2023-02-15T00:35:02;40.33;;;23.23;;
35891;SDS011;21993;42.672;23.296;2023-02-15T00:37:27;41.53;;;23.97;;
35891;SDS011;21993;42.672;23.296;2023-02-15T00:39:53;41.13;;;23.37;;
35891;SDS011;21993;42.672;23.296;2023-02-15T00:42:18;43.03;;;23.87;;
35891;SDS011;21993;42.672;23.296;2023-02-15T00:44:43;39.67;;;22.10;;
35891;SDS011;21993;42.672;23.296;2023-02-15T00:47:09;39.57;;;22.90;;
35891;SDS011;21993;42.672;23.296;2023-02-15T00:49:34;44.87;;;24.17;;
35891;SDS011;21993;42.672;23.296;2023-02-15T00:52:00;38.17;;;22.47;;
35891;SDS011;21993;42.672;23.296;2023-02-15T00:54:25;39.10;;;23.87;;
35891;SDS011;21993;42.672;23.296;2023-02-15T00:56:50;38.57;;;22.10;;
35891;SDS011;21993;42.672;23.296;2023-02-15T00:59:16;38.87;;;22.40;;
35891;SDS011;21993;42.672;23.296;2023-02-15T01:01:41;38.77;;;23.10;;
35891;SDS011;21993;42.672;23.296;2023-02-15T01:04:07;40.07;;;23.77;;
35891;SDS011;21993;42.672;23.296;2023-02-15T01:06:32;46.20;;;25.20;;
35891;SDS011;21993;42.672;23.296;2023-02-15T01:08:57;41.03;;;23.87;;
35891;SDS011;21993;42.672;23.296;2023-02-15T01:11:23;39.83;;;22.90;;
35891;SDS011;21993;42.672;23.296;2023-02-15T01:13:53;39.83;;;23.50;;
35891;SDS011;21993;42.672;23.296;2023-02-15T01:16:20;39.63;;;23.77;;
35891;SDS011;21993;42.672;23.296;2023-02-15T01:18:46;39.33;;;22.30;;
35891;SDS011;21993;42.672;23.296;2023-02-15T01:21:12;38.63;;;22.57;;
35891;SDS011;21993;42.672;23.296;2023-02-15T01:23:40;42.17;;;22.47;;
35891;SDS011;21993;42.672;23.296;2023-02-15T01:26:06;36.87;;;22.10;;
35891;SDS011;21993;42.672;23.296;2023-02-15T01:28:32;41.13;;;23.57;;
35891;SDS011;21993;42.672;23.296;2023-02-15T01:30:58;36.30;;;21.70;;
35891;SDS011;21993;42.672;23.296;2023-02-15T01:33:24;39.10;;;21.97;;
35891;SDS011;21993;42.672;23.296;2023-02-15T01:35:55;40.50;;;23.13;;
35891;SDS011;21993;42.672;23.296;2023-02-15T01:38:21;42.47;;;22.70;;
35891;SDS011;21993;42.672;23.296;2023-02-15T01:40:46;40.77;;;22.73;;
35891;SDS011;21993;42.672;23.296;2023-02-15T01:43:15;36.07;;;22.10;;
35891;SDS011;21993;42.672;23.296;2023-02-15T01:45:40;39.13;;;22.90;;
35891;SDS011;21993;42.672;23.296;2023-02-15T01:50:53;40.50;;;23.07;;
35891;SDS011;21993;42.672;23.296;2023-02-15T01:53:30;35.30;;;21.30;;
35891;SDS011;21993;42.672;23.296;2023-02-15T01:56:01;39.50;;;23.17;;
35891;SDS011;21993;42.672;23.296;2023-02-15T01:58:31;37.73;;;22.97;;
35891;SDS011;21993;42.672;23.296;2023-02-15T02:00:59;36.40;;;21.63;;
35891;SDS011;21993;42.672;23.296;2023-02-15T02:06:25;40.17;;;22.43;;
35891;SDS011;21993;42.672;23.296;2023-02-15T02:08:51;36.90;;;21.93;;
35891;SDS011;21993;42.672;23.296;2023-02-15T02:11:18;31.70;;;20.87;;
35891;SDS011;21993;42.672;23.296;2023-02-15T02:13:43;37.40;;;21.47;;
35891;SDS011;21993;42.672;23.296;2023-02-15T02:24:22;35.53;;;22.37;;
35891;SDS011;21993;42.672;23.296;2023-02-15T02:37:51;33.03;;;20.37;;
35891;SDS011;21993;42.672;23.296;2023-02-15T02:46:34;36.00;;;21.73;;
35891;SDS011;21993;42.672;23.296;2023-02-15T02:48:47;36.57;;;20.97;;
35891;SDS011;21993;42.672;23.296;2023-02-15T02:51:14;40.40;;;22.80;;
35891;SDS011;21993;42.672;23.296;2023-02-15T02:53:46;32.17;;;20.73;;
35891;SDS011;21993;42.672;23.296;2023-02-15T02:59:02;42.13;;;22.67;;
35891;SDS011;21993;42.672;23.296;2023-02-15T03:01:45;34.53;;;19.63;;
35891;SDS011;21993;42.672;23.296;2023-02-15T03:04:17;39.67;;;21.57;;
35891;SDS011;21993;42.672;23.296;2023-02-15T03:06:55;36.53;;;21.73;;
35891;SDS011;21993;42.672;23.296;2023-02-15T03:09:27;33.43;;;19.47;;
35891;SDS011;21993;42.672;23.296;2023-02-15T03:11:59;38.07;;;20.30;;
35891;SDS011;21993;42.672;23.296;2023-02-15T03:14:26;33.60;;;20.80;;
35891;SDS011;21993;42.672;23.296;2023-02-15T03:16:53;34.00;;;19.90;;
35891;SDS011;21993;42.672;23.296;2023-02-15T03:19:29;33.37;;;20.30;;
35891;SDS011;21993;42.672;23.296;2023-02-15T03:22:03;36.30;;;21.30;;
35891;SDS011;21993;42.672;23.296;2023-02-15T03:27:22;36.67;;;21.20;;
35891;SDS011;21993;42.672;23.296;2023-02-15T03:29:52;33.27;;;20.03;;
35891;SDS011;21993;42.672;23.296;2023-02-15T03:32:20;34.77;;;20.07;;
35891;SDS011;21993;42.672;23.296;2023-02-15T03:34:47;32.97;;;20.27;;
35891;SDS011;21993;42.672;23.296;2023-02-15T03:37:15;34.53;;;19.33;;
35891;SDS011;21993;42.672;23.296;2023-02-15T03:42:17;35.07;;;20.27;;
35891;SDS011;21993;42.672;23.296;2023-02-15T03:47:17;30.83;;;18.90;;
35891;SDS011;21993;42.672;23.296;2023-02-15T03:52:11;32.33;;;20.17;;
35891;SDS011;21993;42.672;23.296;2023-02-15T03:54:39;31.13;;;19.97;;
35891;SDS011;21993;42.672;23.296;2023-02-15T03:57:22;30.80;;;19.37;;
35891;SDS011;21993;42.672;23.296;2023-02-15T04:00:15;32.83;;;18.60;;
35891;SDS011;21993;42.672;23.296;2023-02-15T04:05:39;31.60;;;19.30;;
35891;SDS011;21993;42.672;23.296;2023-02-15T04:08:05;31.67;;;19.70;;
35891;SDS011;21993;42.672;23.296;2023-02-15T04:10:31;32.33;;;19.40;;
35891;SDS011;21993;42.672;23.296;2023-02-15T04:13:15;32.17;;;19.77;;
35891;SDS011;21993;42.672;23.296;2023-02-15T04:15:41;41.83;;;20.00;;
35891;SDS011;21993;42.672;23.296;2023-02-15T04:18:25;33.40;;;18.93;;
35891;SDS011;21993;42.672;23.296;2023-02-15T04:21:09;33.10;;;19.40;;
35891;SDS011;21993;42.672;23.296;2023-02-15T04:23:53;30.00;;;19.50;;
35891;SDS011;21993;42.672;23.296;2023-02-15T04:26:36;32.67;;;20.03;;
35891;SDS011;21993;42.672;23.296;2023-02-15T04:29:02;34.83;;;19.03;;
35891;SDS011;21993;42.672;23.296;2023-02-15T04:31:27;38.43;;;20.70;;
35891;SDS011;21993;42.672;23.296;2023-02-15T04:33:52;38.17;;;20.10;;
35891;SDS011;21993;42.672;23.296;2023-02-15T04:36:18;35.43;;;19.63;;
35891;SDS011;21993;42.672;23.296;2023-02-15T04:38:43;34.27;;;19.70;;
35891;SDS011;21993;42.672;23.296;2023-02-15T04:41:09;37.37;;;21.43;;
35891;SDS011;21993;42.672;23.296;2023-02-15T04:43:36;30.60;;;19.90;;
35891;SDS011;21993;42.672;23.296;2023-02-15T04:46:01;34.77;;;20.40;;
35891;SDS011;21993;42.672;23.296;2023-02-15T04:48:27;32.90;;;20.30;;
35891;SDS011;21993;42.672;23.296;2023-02-15T04:50:52;35.57;;;21.13;;
35891;SDS011;21993;42.672;23.296;2023-02-15T04:53:18;35.63;;;21.00;;
35891;SDS011;21993;42.672;23.296;2023-02-15T04:55:43;35.83;;;20.27;;
35891;SDS011;21993;42.672;23.296;2023-02-15T04:58:09;34.40;;;19.47;;
35891;SDS011;21993;42.672;23.296;2023-02-15T05:00:34;35.93;;;20.93;;
35891;SDS011;21993;42.672;23.296;2023-02-15T05:02:59;32.63;;;19.40;;
35891;SDS011;21993;42.672;23.296;2023-02-15T05:05:25;36.37;;;20.17;;
35891;SDS011;21993;42.672;23.296;2023-02-15T05:07:50;34.87;;;20.30;;
35891;SDS011;21993;42.672;23.296;2023-02-15T05:10:15;36.23;;;20.83;;
35891;SDS011;21993;42.672;23.296;2023-02-15T05:12:41;35.97;;;19.93;;
35891;SDS011;21993;42.672;23.296;2023-02-15T05:15:06;34.50;;;19.43;;
35891;SDS011;21993;42.672;23.296;2023-02-15T05:17:32;35.60;;;20.60;;
35891;SDS011;21993;42.672;23.296;2023-02-15T05:19:58;38.30;;;20.53;;
35891;SDS011;21993;42.672;23.296;2023-02-15T05:22:24;35.10;;;21.30;;
35891;SDS011;21993;42.672;23.296;2023-02-15T05:24:49;34.53;;;20.30;;
35891;SDS011;21993;42.672;23.296;2023-02-15T05:27:33;33.87;;;19.83;;
35891;SDS011;21993;42.672;23.296;2023-02-15T05:30:17;33.93;;;19.50;;
35891;SDS011;21993;42.672;23.296;2023-02-15T05:32:43;32.43;;;20.97;;
35891;SDS011;21993;42.672;23.296;2023-02-15T05:35:12;34.70;;;20.80;;
35891;SDS011;21993;42.672;23.296;2023-02-15T05:37:39;34.53;;;19.93;;
35891;SDS011;21993;42.672;23.296;2023-02-15T05:40:05;34.23;;;20.87;;
35891;SDS011;21993;42.672;23.296;2023-02-15T05:42:31;33.77;;;19.33;;
35891;SDS011;21993;42.672;23.296;2023-02-15T05:44:56;34.23;;;20.10;;
35891;SDS011;21993;42.672;23.296;2023-02-15T05:47:21;34.60;;;20.37;;
35891;SDS011;21993;42.672;23.296;2023-02-15T05:49:47;33.30;;;19.57;;
35891;SDS011;21993;42.672;23.296;2023-02-15T05:52:12;34.50;;;19.07;;
35891;SDS011;21993;42.672;23.296;2023-02-15T05:54:37;33.00;;;19.57;;
35891;SDS011;21993;42.672;23.296;2023-02-15T05:57:03;34.27;;;20.83;;
35891;SDS011;21993;42.672;23.296;2023-02-15T05:59:28;35.30;;;19.83;;
35891;SDS011;21993;42.672;23.296;2023-02-15T06:01:53;36.73;;;19.43;;
35891;SDS011;21993;42.672;23.296;2023-02-15T06:04:19;35.97;;;20.43;;
35891;SDS011;21993;42.672;23.296;2023-02-15T06:06:44;34.47;;;20.33;;
35891;SDS011;21993;42.672;23.296;2023-02-15T06:09:10;31.27;;;18.37;;
35891;SDS011;21993;42.672;23.296;2023-02-15T06:11:37;34.77;;;19.87;;
35891;SDS011;21993;42.672;23.296;2023-02-15T06:14:03;42.50;;;22.20;;
35891;SDS011;21993;42.672;23.296;2023-02-15T06:16:28;32.57;;;20.23;;
35891;SDS011;21993;42.672;23.296;2023-02-15T06:18:54;33.17;;;19.53;;
35891;SDS011;21993;42.672;23.296;2023-02-15T06:21:19;31.20;;;19.00;;
35891;SDS011;21993;42.672;23.296;2023-02-15T06:23:45;32.10;;;19.10;;
35891;SDS011;21993;42.672;23.296;2023-02-15T06:26:10;34.80;;;20.53;;
35891;SDS011;21993;42.672;23.296;2023-02-15T06:28:35;31.90;;;19.17;;
35891;SDS011;21993;42.672;23.296;2023-02-15T06:31:02;34.87;;;19.50;;
35891;SDS011;21993;42.672;23.296;2023-02-15T06:33:28;32.03;;;19.23;;
35891;SDS011;21993;42.672;23.296;2023-02-15T06:35:55;31.13;;;18.17;;
35891;SDS011;21993;42.672;23.296;2023-02-15T06:38:21;31.90;;;19.23;;
35891;SDS011;21993;42.672;23.296;2023-02-15T06:40:47;33.93;;;19.07;;
35891;SDS011;21993;42.672;23.296;2023-02-15T06:43:12;28.57;;;18.03;;
35891;SDS011;21993;42.672;23.296;2023-02-15T06:45:38;27.87;;;17.83;;
35891;SDS011;21993;42.672;23.296;2023-02-15T06:48:04;30.43;;;18.20;;
35891;SDS011;21993;42.672;23.296;2023-02-15T06:50:31;32.07;;;18.03;;
35891;SDS011;21993;42.672;23.296;2023-02-15T06:52:57;33.27;;;18.73;;
35891;SDS011;21993;42.672;23.296;2023-02-15T06:55:23;28.60;;;18.40;;
35891;SDS011;21993;42.672;23.296;2023-02-15T06:57:49;27.73;;;17.30;;
35891;SDS011;21993;42.672;23.296;2023-02-15T07:00:14;25.43;;;16.10;;
35891;SDS011;21993;42.672;23.296;2023-02-15T07:02:40;25.37;;;16.10;;
35891;SDS011;21993;42.672;23.296;2023-02-15T07:05:05;30.53;;;17.87;;
35891;SDS011;21993;42.672;23.296;2023-02-15T07:07:30;31.83;;;17.50;;
35891;SDS011;21993;42.672;23.296;2023-02-15T07:09:56;31.27;;;17.50;;
35891;SDS011;21993;42.672;23.296;2023-02-15T07:12:21;29.27;;;18.03;;
35891;SDS011;21993;42.672;23.296;2023-02-15T07:15:05;29.70;;;16.63;;
35891;SDS011;21993;42.672;23.296;2023-02-15T07:17:31;26.37;;;16.23;;
35891;SDS011;21993;42.672;23.296;2023-02-15T07:19:56;27.43;;;17.47;;
35891;SDS011;21993;42.672;23.296;2023-02-15T07:22:22;29.80;;;17.00;;
35891;SDS011;21993;42.672;23.296;2023-02-15T07:24:47;27.87;;;16.97;;
35891;SDS011;21993;42.672;23.296;2023-02-15T07:27:14;25.07;;;16.40;;
35891;SDS011;21993;42.672;23.296;2023-02-15T07:29:39;27.67;;;16.63;;
35891;SDS011;21993;42.672;23.296;2023-02-15T07:32:04;27.80;;;16.43;;
35891;SDS011;21993;42.672;23.296;2023-02-15T07:34:30;30.50;;;17.57;;
35891;SDS011;21993;42.672;23.296;2023-02-15T07:36:55;28.50;;;16.63;;
35891;SDS011;21993;42.672;23.296;2023-02-15T07:39:21;25.23;;;16.27;;
35891;SDS011;21993;42.672;23.296;2023-02-15T07:41:46;28.23;;;17.10;;
35891;SDS011;21993;42.672;23.296;2023-02-15T07:44:12;27.73;;;16.63;;
35891;SDS011;21993;42.672;23.296;2023-02-15T07:46:38;27.70;;;17.07;;
35891;SDS011;21993;42.672;23.296;2023-02-15T07:49:04;26.53;;;15.93;;
35891;SDS011;21993;42.672;23.296;2023-02-15T07:51:29;26.63;;;15.30;;
35891;SDS011;21993;42.672;23.296;2023-02-15T07:53:54;27.37;;;16.90;;
35891;SDS011;21993;42.672;23.296;2023-02-15T07:56:20;24.97;;;15.93;;
35891;SDS011;21993;42.672;23.296;2023-02-15T07:58:45;28.30;;;16.67;;
35891;SDS011;21993;42.672;23.296;2023-02-15T08:01:17;28.17;;;15.53;;
35891;SDS011;21993;42.672;23.296;2023-02-15T08:03:49;24.13;;;15.40;;
35891;SDS011;21993;42.672;23.296;2023-02-15T08:06:15;30.77;;;16.27;;
35891;SDS011;21993;42.672;23.296;2023-02-15T08:08:40;27.47;;;16.27;;
35891;SDS011;21993;42.672;23.296;2023-02-15T08:11:13;26.50;;;16.03;;
35891;SDS011;21993;42.672;23.296;2023-02-15T08:13:59;24.80;;;14.80;;
35891;SDS011;21993;42.672;23.296;2023-02-15T08:16:33;22.53;;;14.63;;
35891;SDS011;21993;42.672;23.296;2023-02-15T08:19:02;25.97;;;14.43;;
35891;SDS011;21993;42.672;23.296;2023-02-15T08:21:43;26.20;;;15.47;;
35891;SDS011;21993;42.672;23.296;2023-02-15T08:24:10;27.00;;;15.57;;
35891;SDS011;21993;42.672;23.296;2023-02-15T08:26:37;24.80;;;14.67;;
35891;SDS011;21993;42.672;23.296;2023-02-15T08:29:03;27.03;;;16.03;;
35891;SDS011;21993;42.672;23.296;2023-02-15T08:31:30;25.53;;;15.33;;
35891;SDS011;21993;42.672;23.296;2023-02-15T08:33:56;24.57;;;15.70;;
35891;SDS011;21993;42.672;23.296;2023-02-15T08:36:26;27.27;;;16.10;;
35891;SDS011;21993;42.672;23.296;2023-02-15T08:38:53;24.97;;;15.53;;
35891;SDS011;21993;42.672;23.296;2023-02-15T08:41:26;24.90;;;16.03;;
35891;SDS011;21993;42.672;23.296;2023-02-15T08:43:55;26.10;;;16.27;;
35891;SDS011;21993;42.672;23.296;2023-02-15T08:46:23;29.20;;;15.30;;
35891;SDS011;21993;42.672;23.296;2023-02-15T08:48:50;25.87;;;15.73;;
35891;SDS011;21993;42.672;23.296;2023-02-15T08:51:23;25.17;;;16.40;;
35891;SDS011;21993;42.672;23.296;2023-02-15T08:53:54;25.07;;;15.07;;
35891;SDS011;21993;42.672;23.296;2023-02-15T08:56:22;25.13;;;15.10;;
35891;SDS011;21993;42.672;23.296;2023-02-15T08:58:50;30.70;;;16.07;;
35891;SDS011;21993;42.672;23.296;2023-02-15T09:01:17;26.30;;;14.90;;
35891;SDS011;21993;42.672;23.296;2023-02-15T09:03:46;27.17;;;15.80;;
35891;SDS011;21993;42.672;23.296;2023-02-15T09:06:13;26.27;;;15.47;;
35891;SDS011;21993;42.672;23.296;2023-02-15T09:08:39;24.07;;;15.23;;
35891;SDS011;21993;42.672;23.296;2023-02-15T09:11:14;25.13;;;15.67;;
35891;SDS011;21993;42.672;23.296;2023-02-15T09:13:48;25.97;;;16.17;;
35891;SDS011;21993;42.672;23.296;2023-02-15T09:16:14;28.00;;;16.13;;
35891;SDS011;21993;42.672;23.296;2023-02-15T09:18:41;25.10;;;15.37;;
35891;SDS011;21993;42.672;23.296;2023-02-15T09:21:11;23.93;;;15.67;;
35891;SDS011;21993;42.672;23.296;2023-02-15T09:23:39;25.83;;;16.63;;
35891;SDS011;21993;42.672;23.296;2023-02-15T09:26:07;21.83;;;14.97;;
35891;SDS011;21993;42.672;23.296;2023-02-15T09:28:34;25.70;;;16.57;;
35891;SDS011;21993;42.672;23.296;2023-02-15T09:33:42;26.23;;;16.17;;
35891;SDS011;21993;42.672;23.296;2023-02-15T09:38:40;27.20;;;17.17;;
35891;SDS011;21993;42.672;23.296;2023-02-15T09:41:13;26.60;;;16.03;;
35891;SDS011;21993;42.672;23.296;2023-02-15T10:09:10;26.67;;;17.40;;
35891;SDS011;21993;42.672;23.296;2023-02-15T10:20:59;31.57;;;17.73;;
35891;SDS011;21993;42.672;23.296;2023-02-15T10:29:36;29.30;;;17.43;;
35891;SDS011;21993;42.672;23.296;2023-02-15T10:32:16;28.97;;;18.20;;
35891;SDS011;21993;42.672;23.296;2023-02-15T10:35:00;32.43;;;18.77;;
35891;SDS011;21993;42.672;23.296;2023-02-15T10:37:36;30.70;;;18.03;;
35891;SDS011;21993;42.672;23.296;2023-02-15T10:40:22;30.33;;;18.23;;
35891;SDS011;21993;42.672;23.296;2023-02-15T10:51:08;34.10;;;18.40;;
35891;SDS011;21993;42.672;23.296;2023-02-15T10:59:40;28.70;;;17.63;;
35891;SDS011;21993;42.672;23.296;2023-02-15T11:02:20;29.97;;;17.57;;
35891;SDS011;21993;42.672;23.296;2023-02-15T11:07:45;28.20;;;17.87;;
35891;SDS011;21993;42.672;23.296;2023-02-15T11:12:58;30.50;;;18.73;;
35891;SDS011;21993;42.672;23.296;2023-02-15T11:15:33;31.77;;;18.67;;
35891;SDS011;21993;42.672;23.296;2023-02-15T11:18:26;29.13;;;19.40;;
35891;SDS011;21993;42.672;23.296;2023-02-15T11:20:54;28.87;;;17.90;;
35891;SDS011;21993;42.672;23.296;2023-02-15T11:23:22;27.00;;;17.33;;
35891;SDS011;21993;42.672;23.296;2023-02-15T11:28:33;32.23;;;18.03;;
35891;SDS011;21993;42.672;23.296;2023-02-15T11:31:21;26.73;;;16.97;;
35891;SDS011;21993;42.672;23.296;2023-02-15T11:34:02;25.90;;;16.33;;
35891;SDS011;21993;42.672;23.296;2023-02-15T11:36:37;26.00;;;17.53;;
35891;SDS011;21993;42.672;23.296;2023-02-15T11:39:10;23.97;;;16.37;;
35891;SDS011;21993;42.672;23.296;2023-02-15T11:41:40;25.67;;;16.87;;
35891;SDS011;21993;42.672;23.296;2023-02-15T11:44:16;22.73;;;16.70;;
35891;SDS011;21993;42.672;23.296;2023-02-15T11:46:43;24.50;;;18.43;;
35891;SDS011;21993;42.672;23.296;2023-02-15T11:49:27;23.97;;;17.67;;
35891;SDS011;21993;42.672;23.296;2023-02-15T11:51:59;28.00;;;18.87;;
35891;SDS011;21993;42.672;23.296;2023-02-15T11:54:33;24.10;;;17.17;;
35891;SDS011;21993;42.672;23.296;2023-02-15T11:57:44;26.10;;;18.57;;
35891;SDS011;21993;42.672;23.296;2023-02-15T12:00:06;25.57;;;17.83;;
35891;SDS011;21993;42.672;23.296;2023-02-15T12:02:39;27.13;;;18.10;;
35891;SDS011;21993;42.672;23.296;2023-02-15T12:05:12;27.57;;;19.00;;
35891;SDS011;21993;42.672;23.296;2023-02-15T12:07:43;30.30;;;20.43;;
35891;SDS011;21993;42.672;23.296;2023-02-15T12:10:25;27.20;;;19.47;;
35891;SDS011;21993;42.672;23.296;2023-02-15T12:13:14;27.83;;;19.70;;
35891;SDS011;21993;42.672;23.296;2023-02-15T12:15:41;30.60;;;20.67;;
35891;SDS011;21993;42.672;23.296;2023-02-15T12:18:20;27.43;;;19.40;;
35891;SDS011;21993;42.672;23.296;2023-02-15T12:20:59;26.07;;;19.37;;
35891;SDS011;21993;42.672;23.296;2023-02-15T12:23:28;31.67;;;20.07;;
35891;SDS011;21993;42.672;23.296;2023-02-15T12:25:55;33.63;;;19.50;;
35891;SDS011;21993;42.672;23.296;2023-02-15T12:28:35;31.60;;;19.50;;
35891;SDS011;21993;42.672;23.296;2023-02-15T12:31:04;31.80;;;19.70;;
35891;SDS011;21993;42.672;23.296;2023-02-15T12:33:44;29.30;;;20.07;;
35891;SDS011;21993;42.672;23.296;2023-02-15T12:36:12;26.97;;;18.57;;
35891;SDS011;21993;42.672;23.296;2023-02-15T12:38:38;30.90;;;20.03;;
35891;SDS011;21993;42.672;23.296;2023-02-15T12:41:05;27.20;;;19.13;;
35891;SDS011;21993;42.672;23.296;2023-02-15T12:44:04;25.43;;;19.27;;
35891;SDS011;21993;42.672;23.296;2023-02-15T12:46:59;27.50;;;19.53;;
35891;SDS011;21993;42.672;23.296;2023-02-15T12:49:33;25.13;;;19.77;;
35891;SDS011;21993;42.672;23.296;2023-02-15T12:52:00;29.10;;;20.17;;
35891;SDS011;21993;42.672;23.296;2023-02-15T12:54:32;30.30;;;20.33;;
35891;SDS011;21993;42.672;23.296;2023-02-15T12:57:12;27.27;;;20.23;;
35891;SDS011;21993;42.672;23.296;2023-02-15T13:05:10;28.73;;;19.00;;
35891;SDS011;21993;42.672;23.296;2023-02-15T13:07:50;29.07;;;19.73;;
35891;SDS011;21993;42.672;23.296;2023-02-15T13:12:53;31.40;;;19.00;;
35891;SDS011;21993;42.672;23.296;2023-02-15T13:15:41;27.63;;;19.47;;
35891;SDS011;21993;42.672;23.296;2023-02-15T13:18:14;31.00;;;20.00;;
35891;SDS011;21993;42.672;23.296;2023-02-15T13:20:44;33.20;;;21.40;;
35891;SDS011;21993;42.672;23.296;2023-02-15T13:23:32;30.77;;;20.37;;
35891;SDS011;21993;42.672;23.296;2023-02-15T13:25:58;31.87;;;23.13;;
35891;SDS011;21993;42.672;23.296;2023-02-15T13:28:32;45.97;;;28.10;;
35891;SDS011;21993;42.672;23.296;2023-02-15T13:31:11;27.37;;;19.00;;
35891;SDS011;21993;42.672;23.296;2023-02-15T13:33:39;29.53;;;19.70;;
35891;SDS011;21993;42.672;23.296;2023-02-15T13:44:23;31.50;;;20.60;;
35891;SDS011;21993;42.672;23.296;2023-02-15T13:47:17;30.37;;;20.23;;
35891;SDS011;21993;42.672;23.296;2023-02-15T13:52:17;28.20;;;18.73;;
35891;SDS011;21993;42.672;23.296;2023-02-15T13:54:48;31.03;;;20.77;;
35891;SDS011;21993;42.672;23.296;2023-02-15T14:10:43;29.13;;;20.30;;
35891;SDS011;21993;42.672;23.296;2023-02-15T14:16:19;33.73;;;21.57;;
35891;SDS011;21993;42.672;23.296;2023-02-15T14:18:53;34.57;;;20.60;;
35891;SDS011;21993;42.672;23.296;2023-02-15T14:21:31;33.27;;;22.47;;
35891;SDS011;21993;42.672;23.296;2023-02-15T14:29:51;30.83;;;21.67;;
35891;SDS011;21993;42.672;23.296;2023-02-15T14:32:27;34.73;;;21.50;;
35891;SDS011;21993;42.672;23.296;2023-02-15T14:34:58;33.70;;;20.97;;
35891;SDS011;21993;42.672;23.296;2023-02-15T14:37:40;34.63;;;21.23;;
35891;SDS011;21993;42.672;23.296;2023-02-15T14:48:47;33.07;;;22.50;;
35891;SDS011;21993;42.672;23.296;2023-02-15T14:56:41;36.37;;;22.77;;
35891;SDS011;21993;42.672;23.296;2023-02-15T14:59:21;35.77;;;21.53;;
35891;SDS011;21993;42.672;23.296;2023-02-15T15:01:52;33.40;;;21.93;;
35891;SDS011;21993;42.672;23.296;2023-02-15T15:04:27;37.23;;;23.03;;
35891;SDS011;21993;42.672;23.296;2023-02-15T15:07:16;37.63;;;24.10;;
35891;SDS011;21993;42.672;23.296;2023-02-15T15:10:02;35.90;;;22.17;;
35891;SDS011;21993;42.672;23.296;2023-02-15T15:12:40;39.63;;;23.70;;
35891;SDS011;21993;42.672;23.296;2023-02-15T15:15:11;36.60;;;23.63;;
35891;SDS011;21993;42.672;23.296;2023-02-15T15:17:59;31.43;;;21.87;;
35891;SDS011;21993;42.672;23.296;2023-02-15T15:28:16;32.00;;;20.40;;
35891;SDS011;21993;42.672;23.296;2023-02-15T15:31:15;34.97;;;21.87;;
35891;SDS011;21993;42.672;23.296;2023-02-15T15:45:36;36.27;;;21.07;;
35891;SDS011;21993;42.672;23.296;2023-02-15T15:50:51;39.97;;;21.13;;
35891;SDS011;21993;42.672;23.296;2023-02-15T15:53:22;34.40;;;21.20;;
35891;SDS011;21993;42.672;23.296;2023-02-15T15:55:50;32.97;;;22.20;;
35891;SDS011;21993;42.672;23.296;2023-02-15T15:58:20;38.97;;;21.13;;
35891;SDS011;21993;42.672;23.296;2023-02-15T16:00:48;35.30;;;21.73;;
35891;SDS011;21993;42.672;23.296;2023-02-15T16:03:21;35.73;;;21.93;;
35891;SDS011;21993;42.672;23.296;2023-02-15T16:05:48;38.60;;;22.73;;
35891;SDS011;21993;42.672;23.296;2023-02-15T16:08:29;36.97;;;21.93;;
35891;SDS011;21993;42.672;23.296;2023-02-15T16:11:08;37.83;;;22.83;;
35891;SDS011;21993;42.672;23.296;2023-02-15T16:13:40;40.83;;;23.53;;
35891;SDS011;21993;42.672;23.296;2023-02-15T16:16:06;35.40;;;22.63;;
35891;SDS011;21993;42.672;23.296;2023-02-15T16:18:32;38.73;;;24.33;;
35891;SDS011;21993;42.672;23.296;2023-02-15T16:21:03;40.13;;;23.87;;
35891;SDS011;21993;42.672;23.296;2023-02-15T16:28:51;44.53;;;25.53;;
35891;SDS011;21993;42.672;23.296;2023-02-15T16:31:17;39.47;;;24.97;;
35891;SDS011;21993;42.672;23.296;2023-02-15T16:33:44;43.27;;;24.47;;
35891;SDS011;21993;42.672;23.296;2023-02-15T16:36:10;44.17;;;25.43;;
35891;SDS011;21993;42.672;23.296;2023-02-15T16:39:05;39.70;;;23.23;;
35891;SDS011;21993;42.672;23.296;2023-02-15T16:41:32;42.10;;;24.67;;
35891;SDS011;21993;42.672;23.296;2023-02-15T16:44:10;37.87;;;24.17;;
35891;SDS011;21993;42.672;23.296;2023-02-15T16:46:41;40.63;;;24.17;;
35891;SDS011;21993;42.672;23.296;2023-02-15T16:49:18;37.30;;;24.70;;
35891;SDS011;21993;42.672;23.296;2023-02-15T16:51:53;36.10;;;22.90;;
35891;SDS011;21993;42.672;23.296;2023-02-15T16:54:21;38.83;;;24.43;;
35891;SDS011;21993;42.672;23.296;2023-02-15T16:56:49;42.03;;;24.43;;
35891;SDS011;21993;42.672;23.296;2023-02-15T17:01:52;39.70;;;23.77;;
35891;SDS011;21993;42.672;23.296;2023-02-15T17:07:06;41.77;;;24.63;;
35891;SDS011;21993;42.672;23.296;2023-02-15T17:09:49;39.80;;;24.57;;
35891;SDS011;21993;42.672;23.296;2023-02-15T17:12:38;40.03;;;25.77;;
35891;SDS011;21993;42.672;23.296;2023-02-15T17:15:25;43.60;;;24.03;;
35891;SDS011;21993;42.672;23.296;2023-02-15T17:17:58;39.80;;;24.83;;
35891;SDS011;21993;42.672;23.296;2023-02-15T17:20:44;45.23;;;24.17;;
35891;SDS011;21993;42.672;23.296;2023-02-15T17:25:48;41.03;;;25.83;;
35891;SDS011;21993;42.672;23.296;2023-02-15T17:28:17;42.67;;;25.30;;
35891;SDS011;21993;42.672;23.296;2023-02-15T17:30:45;39.93;;;23.63;;
35891;SDS011;21993;42.672;23.296;2023-02-15T17:38:36;48.53;;;25.10;;
35891;SDS011;21993;42.672;23.296;2023-02-15T17:41:03;51.37;;;24.60;;
35891;SDS011;21993;42.672;23.296;2023-02-15T17:43:29;40.03;;;23.23;;
35891;SDS011;21993;42.672;23.296;2023-02-15T17:45:54;35.63;;;21.67;;
35891;SDS011;21993;42.672;23.296;2023-02-15T17:48:31;36.70;;;22.27;;
35891;SDS011;21993;42.672;23.296;2023-02-15T17:51:03;33.10;;;21.57;;
35891;SDS011;21993;42.672;23.296;2023-02-15T17:53:30;36.50;;;21.23;;
35891;SDS011;21993;42.672;23.296;2023-02-15T17:55:56;36.27;;;20.77;;
35891;SDS011;21993;42.672;23.296;2023-02-15T17:58:22;33.27;;;20.33;;